Time;durP1;ratioP1;P1;durP2;ratioP2;P2;SDS_P1;SDS_P2;PMS_P1;PMS_P2;Temp;Humidity;BMP_temperature;BMP_pressure;BME280_temperature;BME280_humidity;BME280_pressure;Samples;Min_cycle;Max_cycle;Signal;HPM_P1;HPM_P2
2022/10/03 00:01:01;;;;;;;;;;;;;;;10.27;74.86;99596.09;4971485;28;909;-60
2022/10/03 00:03:46;;;;;;;;;;;;;;;10.35;75.14;99594.13;4955233;28;1252;-60
2022/10/03 00:06:15;;;;;;;;;;;;;;;10.38;74.84;99596.84;4955036;28;1459;-60
2022/10/03 00:08:56;;;;;;;;;;;;;;;10.30;75.27;99603.59;4971265;28;927;-60
2022/10/03 00:11:34;;;;;;;;;;;;;;;10.25;75.44;99595.72;4971249;28;1963;-60
2022/10/03 00:14:03;;;;;;;;;;;;;;;10.09;75.62;99587.16;5026625;28;1021;-60
2022/10/03 00:16:39;;;;;;;;;;;;;;;9.93;76.44;99588.44;5032037;28;850;-60
2022/10/03 00:19:24;;;;;;;;;;;;;;;9.92;77.24;99578.59;5032008;28;841;-60
2022/10/03 00:22:09;;;;;;;;;;;;;;;9.85;76.90;99578.59;5031916;28;815;-60
2022/10/03 00:24:39;;;;;;;;;;;;;;;9.80;77.63;99576.28;5032113;28;842;-60
2022/10/03 00:27:10;;;;;;;;;;;;;;;9.79;77.73;99580.22;5030526;28;801;-60
2022/10/03 00:29:55;;;;;;;;;;;;;;;9.77;77.91;99577.06;5031817;28;787;-60
2022/10/03 00:32:22;;;;;;;;;;;;;;;9.67;77.42;99573.19;5031931;28;1949;-60
2022/10/03 00:34:54;;;;;;;;;;;;;;;9.52;78.45;99579.97;5031807;28;799;-60
2022/10/03 00:40:18;;;;;;;;;;;;;;;9.23;79.01;99582.03;5068549;27;2863965;-59
2022/10/03 00:42:59;;;;;;;;;;;;;;;9.16;80.18;99580.88;5171615;27;877;-59
2022/10/03 00:45:48;;;;;;;;;;;;;;;9.24;80.24;99565.09;5152757;27;871;-59
2022/10/03 00:48:36;;;;;;;;;;;;;;;9.30;80.31;99565.44;5171265;27;909;-59
2022/10/03 00:51:21;;;;;;;;;;;;;;;9.36;80.89;99570.16;5171340;27;939;-59
2022/10/03 00:53:48;;;;;;;;;;;;;;;9.37;80.65;99568.19;5171206;27;809;-59
2022/10/03 00:56:30;;;;;;;;;;;;;;;9.42;80.78;99567.78;5171303;27;814;-59
2022/10/03 00:59:11;;;;;;;;;;;;;;;9.49;80.14;99572.47;5171129;27;1918;-59
2022/10/03 01:01:47;;;;;;;;;;;;;;;9.58;80.33;99567.31;5171146;27;892;-59
2022/10/03 01:04:19;;;;;;;;;;;;;;;9.67;79.68;99566.91;5171121;27;797;-59
2022/10/03 01:07:06;;;;;;;;;;;;;;;9.84;79.21;99560.50;5171177;27;893;-59
2022/10/03 01:09:47;;;;;;;;;;;;;;;10.05;78.56;99554.03;5118037;27;1096;-59
2022/10/03 01:12:32;;;;;;;;;;;;;;;10.08;78.14;99556.00;5170763;27;809;-59
2022/10/03 01:15:09;;;;;;;;;;;;;;;10.19;77.67;99550.38;5170838;27;813;-59
2022/10/03 01:17:46;;;;;;;;;;;;;;;10.27;77.13;99540.09;5170849;27;829;-59
2022/10/03 01:20:42;;;;;;;;;;;;;;;10.36;76.72;99548.72;5170524;27;810;-59
2022/10/03 01:23:15;;;;;;;;;;;;;;;10.46;76.08;99552.59;5134698;27;1207;-59
2022/10/03 01:25:52;;;;;;;;;;;;;;;10.53;75.48;99555.28;5170593;27;822;-59
2022/10/03 01:31:16;;;;;;;;;;;;;;;10.48;74.96;99567.56;5170550;27;711;-59
2022/10/03 01:33:48;;;;;;;;;;;;;;;10.41;75.20;99551.84;5170487;27;849;-59
2022/10/03 01:36:16;;;;;;;;;;;;;;;10.47;75.14;99559.66;5170989;27;826;-59
2022/10/03 01:38:56;;;;;;;;;;;;;;;10.47;74.81;99556.91;5170050;27;1913;-59
2022/10/03 01:41:41;;;;;;;;;;;;;;;10.35;74.99;99547.16;5170351;27;872;-59
2022/10/03 01:44:12;;;;;;;;;;;;;;;10.29;75.45;99555.09;5170279;27;1054;-59
2022/10/03 01:46:42;;;;;;;;;;;;;;;10.41;75.18;99551.03;5170062;27;1125;-59
2022/10/03 01:49:19;;;;;;;;;;;;;;;10.51;74.77;99549.38;5151488;27;1294;-59
2022/10/03 01:51:54;;;;;;;;;;;;;;;10.47;74.64;99541.09;5156017;27;797;-59
2022/10/03 01:54:30;;;;;;;;;;;;;;;10.34;74.88;99540.03;5137603;27;1542;-59
2022/10/03 01:57:00;;;;;;;;;;;;;;;10.17;75.38;99542.50;5156482;27;833;-59
2022/10/03 01:59:36;;;;;;;;;;;;;;;9.89;75.79;99553.75;5156068;27;1977;-59
2022/10/03 02:02:25;;;;;;;;;;;;;;;9.54;76.38;99559.06;5156036;27;841;-59
2022/10/03 02:04:59;;;;;;;;;;;;;;;9.22;77.69;99563.91;5155968;27;864;-59
2022/10/03 02:07:26;;;;;;;;;;;;;;;8.99;78.39;99560.44;5137437;27;1324;-59
2022/10/03 02:10:08;;;;;;;;;;;;;;;8.84;79.32;99560.88;5155900;27;850;-59
2022/10/03 02:12:39;;;;;;;;;;;;;;;8.76;79.72;99558.09;5155789;27;836;-59
2022/10/03 02:15:18;;;;;;;;;;;;;;;8.72;79.91;99557.31;5156118;27;848;-59
2022/10/03 02:17:45;;;;;;;;;;;;;;;8.71;81.28;99564.03;5155666;27;1944;-59
2022/10/03 02:20:24;;;;;;;;;;;;;;;8.67;81.75;99556.94;5155769;27;793;-59
2022/10/03 02:22:53;;;;;;;;;;;;;;;8.77;82.56;99551.44;5155695;27;872;-59
2022/10/03 02:25:20;;;;;;;;;;;;;;;8.77;82.55;99550.66;5155617;27;828;-59
2022/10/03 02:28:02;;;;;;;;;;;;;;;8.76;83.05;99540.78;5155593;27;801;-59
2022/10/03 02:30:38;;;;;;;;;;;;;;;8.87;82.27;99551.78;5156463;27;750;-60
2022/10/03 02:33:31;;;;;;;;;;;;;;;8.78;82.47;99543.94;5155358;27;1030;-59
2022/10/03 02:36:15;;;;;;;;;;;;;;;8.95;82.05;99545.09;5136725;27;1200;-59
2022/10/03 02:39:02;;;;;;;;;;;;;;;8.86;81.99;99547.47;5133042;27;1898;-59
2022/10/03 02:41:45;;;;;;;;;;;;;;;8.86;82.05;99547.47;5133157;27;1232;-59
2022/10/03 02:44:22;;;;;;;;;;;;;;;8.94;82.60;99541.56;5134487;27;893;-59
2022/10/03 02:47:07;;;;;;;;;;;;;;;9.06;81.98;99543.06;5133209;27;1299;-59
2022/10/03 02:49:49;;;;;;;;;;;;;;;9.06;82.00;99542.28;5134413;27;778;-59
2022/10/03 02:52:19;;;;;;;;;;;;;;;9.07;82.16;99546.63;5134427;27;806;-59
2022/10/03 02:55:15;;;;;;;;;;;;;;;9.22;82.49;99552.88;5134277;27;833;-59
2022/10/03 02:57:52;;;;;;;;;;;;;;;9.47;81.52;99552.78;5111479;28;1195;-59
2022/10/03 03:00:41;;;;;;;;;;;;;;;9.68;80.72;99555.44;5111597;28;786;-59
2022/10/03 03:03:24;;;;;;;;;;;;;;;9.88;79.76;99549.41;5109532;28;1409;-59
2022/10/03 03:05:55;;;;;;;;;;;;;;;9.94;79.02;99548.59;5112034;28;1085;-59
2022/10/03 03:08:44;;;;;;;;;;;;;;;10.00;78.64;99544.19;5111407;28;885;-59
2022/10/03 03:11:37;;;;;;;;;;;;;;;10.05;78.02;99533.91;5106062;28;1717;-59
2022/10/03 03:14:21;;;;;;;;;;;;;;;10.01;77.85;99525.69;5111059;28;1119;-59
2022/10/03 03:20:11;;;;;;;;;;;;;;;9.52;78.28;99533.06;5104833;28;2050;-59
2022/10/03 03:22:48;;;;;;;;;;;;;;;9.14;78.83;99521.78;5111071;28;826;-59
2022/10/03 03:25:20;;;;;;;;;;;;;;;8.79;79.92;99531.75;5111177;28;916;-59
2022/10/03 03:28:00;;;;;;;;;;;;;;;8.57;81.67;99514.44;5110805;28;1198;-59
2022/10/03 03:30:56;;;;;;;;;;;;;;;8.63;83.22;99518.38;5110915;28;818;-59
2022/10/03 03:33:25;;;;;;;;;;;;;;;8.58;82.55;99530.59;5098603;27;1617;-59
2022/10/03 03:36:04;;;;;;;;;;;;;;;8.44;83.53;99510.53;5133801;27;817;-59
2022/10/03 03:38:34;;;;;;;;;;;;;;;8.32;83.79;99511.69;5140177;27;1897;-59
2022/10/03 03:41:07;;;;;;;;;;;;;;;8.25;83.69;99509.72;5135375;27;1287;-59
2022/10/03 03:43:33;;;;;;;;;;;;;;;8.28;85.01;99508.94;5154154;27;841;-59
2022/10/03 03:46:14;;;;;;;;;;;;;;;8.43;84.65;99506.19;5154019;27;810;-59
2022/10/03 03:49:00;;;;;;;;;;;;;;;8.53;84.54;99508.16;5153877;27;912;-59
2022/10/03 03:51:35;;;;;;;;;;;;;;;8.50;84.33;99509.75;5153969;27;857;-59
2022/10/03 03:54:25;;;;;;;;;;;;;;;8.45;83.88;99506.59;5153782;27;1012;-59
2022/10/03 03:56:54;;;;;;;;;;;;;;;8.33;85.17;99505.78;5135306;27;1220;-59
2022/10/03 03:59:21;;;;;;;;;;;;;;;8.30;84.91;99506.59;5153598;27;2227;-59
2022/10/03 04:01:56;;;;;;;;;;;;;;;8.37;85.52;99501.06;5135291;27;1738;-59
2022/10/03 04:04:41;;;;;;;;;;;;;;;8.52;85.31;99501.09;5153637;27;852;-59
2022/10/03 04:07:21;;;;;;;;;;;;;;;8.42;84.56;99497.16;5135128;27;1441;-59
2022/10/03 04:09:58;;;;;;;;;;;;;;;8.24;84.95;99491.63;5153749;27;797;-59
2022/10/03 04:12:40;;;;;;;;;;;;;;;8.13;85.76;99486.13;5153561;27;829;-60
2022/10/03 04:15:07;;;;;;;;;;;;;;;8.06;85.38;99491.63;5153507;27;861;-59
2022/10/03 04:20:36;;;;;;;;;;;;;;;8.03;86.94;99494.41;5153485;27;718;-59
2022/10/03 04:23:21;;;;;;;;;;;;;;;8.12;86.92;99492.81;5153421;27;793;-59
2022/10/03 04:26:14;;;;;;;;;;;;;;;8.20;86.52;99487.31;5153367;27;841;-59
2022/10/03 04:28:49;;;;;;;;;;;;;;;8.32;87.23;99484.94;5114076;27;1193;-60
2022/10/03 04:31:22;;;;;;;;;;;;;;;8.48;87.42;99481.81;5153520;27;809;-59
2022/10/03 04:33:55;;;;;;;;;;;;;;;8.58;86.79;99483.75;5153272;27;945;-59
2022/10/03 04:36:28;;;;;;;;;;;;;;;8.70;87.08;99481.75;5153314;27;872;-59
2022/10/03 04:39:24;;;;;;;;;;;;;;;8.90;86.23;99476.59;5152878;27;2056;-60
2022/10/03 04:41:58;;;;;;;;;;;;;;;9.24;85.92;99481.56;5131469;27;1361;-59
2022/10/03 04:44:36;;;;;;;;;;;;;;;9.54;84.72;99481.03;5153329;27;833;-60
2022/10/03 04:47:08;;;;;;;;;;;;;;;9.74;83.86;99475.78;5153220;27;853;-59
2022/10/03 04:49:41;;;;;;;;;;;;;;;9.74;83.75;99482.06;5153148;27;794;-59
2022/10/03 04:52:26;;;;;;;;;;;;;;;9.78;83.70;99479.28;5152984;27;857;-59
2022/10/03 04:54:59;;;;;;;;;;;;;;;10.12;83.11;99465.63;5153035;27;896;-60
2022/10/03 04:57:35;;;;;;;;;;;;;;;10.54;81.56;99454.59;5153023;27;837;-60
2022/10/03 05:00:13;;;;;;;;;;;;;;;10.90;80.16;99446.69;5153316;27;1952;-59
2022/10/03 05:33:48;;;;;;;;;;;;;;;12.91;71.55;99500.97;5027010;28;1344;-60
2022/10/03 05:36:18;;;;;;;;;;;;;;;13.21;69.85;99502.78;5034867;28;901;-60
2022/10/03 05:39:03;;;;;;;;;;;;;;;13.47;68.48;99498.31;5034260;28;1910;-60
2022/10/03 05:41:31;;;;;;;;;;;;;;;13.75;67.19;99483.00;5034848;28;778;-60
2022/10/03 05:44:00;;;;;;;;;;;;;;;14.06;66.15;99475.13;5034520;28;881;-60
2022/10/03 05:46:32;;;;;;;;;;;;;;;14.33;64.64;99465.72;5032706;28;1454;-60
2022/10/03 05:49:11;;;;;;;;;;;;;;;14.56;64.10;99466.75;5034644;28;795;-61
2022/10/03 05:51:45;;;;;;;;;;;;;;;14.77;63.21;99457.84;5034693;28;929;-60
2022/10/03 05:54:30;;;;;;;;;;;;;;;14.99;61.98;99437.75;5033098;28;810;-60
2022/10/03 05:57:10;;;;;;;;;;;;;;;15.26;60.71;99443.72;5032985;28;1176;-60
2022/10/03 05:59:43;;;;;;;;;;;;;;;15.64;59.83;99444.94;5034507;28;1949;-60
2022/10/03 06:02:34;;;;;;;;;;;;;;;16.08;58.26;99456.31;5034444;28;818;-60
2022/10/03 06:05:06;;;;;;;;;;;;;;;16.76;56.44;99467.16;5034202;28;819;-60
2022/10/03 06:07:52;;;;;;;;;;;;;;;17.66;52.83;99467.44;5034166;28;794;-60
2022/10/03 06:10:18;;;;;;;;;;;;;;;18.40;49.96;99488.03;5034116;28;803;-60
2022/10/03 06:13:04;;;;;;;;;;;;;;;18.66;49.43;99488.50;5032645;28;1282;-60
2022/10/03 06:15:37;;;;;;;;;;;;;;;18.32;49.24;99490.34;5034023;28;1027;-60
2022/10/03 06:18:23;;;;;;;;;;;;;;;17.93;49.64;99494.75;5033813;28;1882;-60
2022/10/03 06:20:53;;;;;;;;;;;;;;;18.17;49.10;99506.16;5026334;28;1140;-60
2022/10/03 06:23:40;;;;;;;;;;;;;;;18.76;47.95;99504.06;5033824;28;854;-60
2022/10/03 06:26:40;;;;;;;;;;;;;;;19.00;47.45;99506.28;5033547;28;1058;-58
2022/10/03 06:29:18;;;;;;;;;;;;;;;18.76;47.63;99500.50;5011146;28;1332;-60
2022/10/03 06:31:54;;;;;;;;;;;;;;;18.53;47.53;99496.28;5033778;28;1027;-60
2022/10/03 06:34:43;;;;;;;;;;;;;;;18.36;47.67;99493.00;5033505;28;1501;-60
2022/10/03 06:37:36;;;;;;;;;;;;;;;18.18;47.69;99485.34;5033524;28;889;-60
2022/10/03 06:40:20;;;;;;;;;;;;;;;17.93;48.01;99480.78;5017875;28;1956;-60
2022/10/03 06:43:19;;;;;;;;;;;;;;;17.79;48.66;99468.09;5033593;28;806;-60
2022/10/03 06:45:48;;;;;;;;;;;;;;;17.62;48.97;99459.19;5010638;28;1115;-60
2022/10/03 06:48:38;;;;;;;;;;;;;;;17.59;49.08;99465.69;5033817;28;786;-60
2022/10/03 06:51:27;;;;;;;;;;;;;;;17.54;49.39;99467.06;5009800;28;1600;-60
2022/10/03 06:57:29;;;;;;;;;;;;;;;17.84;48.84;99475.94;5011493;28;1702;-58
2022/10/03 07:00:14;;;;;;;;;;;;;;;17.85;48.67;99479.50;5013321;28;1890;-60
2022/10/03 07:02:56;;;;;;;;;;;;;;;17.66;48.98;99482.16;5028395;28;1254;-60
2022/10/03 07:05:35;;;;;;;;;;;;;;;17.47;49.14;99481.31;5013251;28;842;-60
2022/10/03 07:08:02;;;;;;;;;;;;;;;17.47;49.04;99486.88;5013219;28;795;-60
2022/10/03 07:10:40;;;;;;;;;;;;;;;17.62;48.68;99498.31;5013244;28;834;-60
2022/10/03 07:13:27;;;;;;;;;;;;;;;17.96;48.06;99493.81;5013358;28;855;-60
2022/10/03 07:16:22;;;;;;;;;;;;;;;18.32;47.76;99481.16;5013101;28;928;-60
2022/10/03 07:19:00;;;;;;;;;;;;;;;19.16;45.75;99465.94;5013004;28;1898;-60
2022/10/03 07:21:36;;;;;;;;;;;;;;;18.79;45.85;99457.59;5011721;28;885;-60
2022/10/03 07:24:18;;;;;;;;;;;;;;;18.30;46.73;99458.47;5012966;28;807;-60
2022/10/03 07:26:45;;;;;;;;;;;;;;;18.14;47.18;99460.31;5013002;28;825;-60
2022/10/03 07:29:17;;;;;;;;;;;;;;;18.19;47.25;99456.13;5012818;28;1227;-58
2022/10/03 07:32:02;;;;;;;;;;;;;;;18.41;47.22;99444.81;5012932;28;983;-60
2022/10/03 07:34:46;;;;;;;;;;;;;;;18.97;46.37;99426.78;5012961;28;888;-57
2022/10/03 07:40:30;;;;;;;;;;;;;;;20.16;43.22;99433.19;5012610;28;1973;-60
2022/10/03 07:43:16;;;;;;;;;;;;;;;20.42;42.78;99441.13;5012610;28;897;-60
2022/10/03 07:45:48;;;;;;;;;;;;;;;20.58;41.92;99434.28;5012620;28;897;-60
2022/10/03 07:48:14;;;;;;;;;;;;;;;21.14;41.17;99440.16;5011964;28;928;-60
2022/10/03 07:50:49;;;;;;;;;;;;;;;22.01;39.95;99423.66;5012530;28;885;-60
2022/10/03 07:53:34;;;;;;;;;;;;;;;22.27;38.41;99417.38;5011138;28;1476;-59
2022/10/03 07:56:07;;;;;;;;;;;;;;;22.00;38.98;99422.13;5012076;28;866;-58
2022/10/03 07:58:41;;;;;;;;;;;;;;;22.03;38.85;99411.91;5012035;28;1890;-60
2022/10/03 08:01:08;;;;;;;;;;;;;;;22.06;38.22;99413.75;5010791;28;866;-58
2022/10/03 08:03:58;;;;;;;;;;;;;;;21.56;38.44;99411.00;5012278;28;876;-60
2022/10/03 08:06:42;;;;;;;;;;;;;;;21.23;39.00;99408.38;5011939;28;890;-60
2022/10/03 08:09:10;;;;;;;;;;;;;;;21.03;39.44;99414.69;5011747;28;818;-58
2022/10/03 08:11:56;;;;;;;;;;;;;;;20.86;39.82;99411.59;5011657;28;949;-58
2022/10/03 08:14:23;;;;;;;;;;;;;;;20.98;39.97;99408.50;5012027;28;878;-58
2022/10/03 08:16:49;;;;;;;;;;;;;;;21.22;39.55;99418.84;5012267;28;835;-58
2022/10/03 08:19:25;;;;;;;;;;;;;;;21.30;38.95;99417.22;5012198;28;1886;-59
2022/10/03 08:21:58;;;;;;;;;;;;;;;21.35;39.04;99418.56;5012005;28;814;-58
2022/10/03 08:24:43;;;;;;;;;;;;;;;21.36;38.64;99417.31;5011866;28;803;-59
2022/10/03 08:27:16;;;;;;;;;;;;;;;21.10;38.63;99411.50;5011872;28;835;-58
2022/10/03 08:30:01;;;;;;;;;;;;;;;20.79;38.56;99413.50;5011372;28;818;-58
2022/10/03 08:32:47;;;;;;;;;;;;;;;20.39;38.88;99414.00;5026796;28;1377;-58
2022/10/03 08:35:25;;;;;;;;;;;;;;;20.07;39.72;99422.00;5011729;28;819;-59
2022/10/03 08:38:01;;;;;;;;;;;;;;;19.81;40.29;99426.53;5011441;28;864;-58
2022/10/03 08:40:30;;;;;;;;;;;;;;;19.72;40.41;99414.09;5011843;28;870;-60
2022/10/03 08:43:08;;;;;;;;;;;;;;;19.73;40.53;99421.25;5011790;28;877;-61
2022/10/03 08:45:44;;;;;;;;;;;;;;;19.66;40.20;99427.19;5011779;28;886;-58
2022/10/03 08:48:28;;;;;;;;;;;;;;;19.54;40.38;99428.97;5011754;28;833;-61
2022/10/03 08:51:07;;;;;;;;;;;;;;;19.30;41.21;99440.09;5011771;28;814;-61
2022/10/03 08:53:50;;;;;;;;;;;;;;;19.16;41.76;99441.53;5011962;28;799;-61
2022/10/03 08:56:35;;;;;;;;;;;;;;;19.35;41.52;99439.47;5011721;28;799;-61
2022/10/03 08:59:02;;;;;;;;;;;;;;;19.52;41.28;99433.47;5026623;28;1882;-61
2022/10/03 09:01:43;;;;;;;;;;;;;;;19.60;41.12;99451.50;5014800;28;854;-61
2022/10/03 09:04:27;;;;;;;;;;;;;;;19.23;41.30;99448.81;5015605;28;867;-61
2022/10/03 09:07:12;;;;;;;;;;;;;;;18.71;42.27;99462.72;5015432;28;838;-61
2022/10/03 09:10:00;;;;;;;;;;;;;;;18.13;43.90;99460.78;5015578;28;853;-61
2022/10/03 09:12:34;;;;;;;;;;;;;;;17.50;45.67;99460.06;5015481;28;912;-61
2022/10/03 09:15:07;;;;;;;;;;;;;;;17.27;46.10;99459.31;5014075;28;1390;-61
2022/10/03 09:17:36;;;;;;;;;;;;;;;17.51;45.27;99462.38;5015352;28;814;-61
2022/10/03 09:20:21;;;;;;;;;;;;;;;17.40;46.39;99464.81;5015227;28;1941;-61
2022/10/03 09:23:06;;;;;;;;;;;;;;;16.83;48.30;99459.34;5014038;28;1354;-61
2022/10/03 09:25:35;;;;;;;;;;;;;;;16.48;50.92;99458.56;5015424;28;924;-61
2022/10/03 09:28:26;;;;;;;;;;;;;;;16.10;53.18;99459.44;5015149;28;810;-61
2022/10/03 09:31:11;;;;;;;;;;;;;;;15.87;54.67;99463.38;5015018;28;916;-61
2022/10/03 09:33:43;;;;;;;;;;;;;;;15.68;56.75;99467.91;5014906;28;1436;-61
2022/10/03 09:36:12;;;;;;;;;;;;;;;15.86;56.44;99468.16;5014912;28;830;-61
2022/10/03 09:38:57;;;;;;;;;;;;;;;16.28;55.32;99470.78;5014888;28;1906;-61
2022/10/03 09:41:30;;;;;;;;;;;;;;;16.58;55.21;99478.94;5014821;28;826;-61
2022/10/03 09:44:14;;;;;;;;;;;;;;;16.69;54.77;99479.38;5015742;28;787;-61
2022/10/03 09:50:22;;;;;;;;;;;;;;;17.20;53.28;99490.31;5014767;28;668;-61
2022/10/03 09:53:07;;;;;;;;;;;;;;;16.89;54.57;99493.03;4954100;29;1348;-62
2022/10/03 09:55:50;;;;;;;;;;;;;;;16.61;55.44;99486.44;4954238;29;807;-61
2022/10/03 09:58:43;;;;;;;;;;;;;;;16.55;56.29;99494.56;4997403;28;1886;-61
2022/10/03 10:01:10;;;;;;;;;;;;;;;16.54;56.87;99493.03;5011940;28;1177;-61
2022/10/03 10:03:49;;;;;;;;;;;;;;;16.06;58.76;99495.78;5014529;28;865;-61
2022/10/03 10:06:25;;;;;;;;;;;;;;;15.30;63.71;99488.94;5014426;28;897;-61
2022/10/03 10:09:07;;;;;;;;;;;;;;;14.43;69.17;99491.69;5014634;28;846;-60
2022/10/03 10:11:46;;;;;;;;;;;;;;;13.68;75.03;99497.81;5013816;28;854;-61
2022/10/03 10:14:16;;;;;;;;;;;;;;;13.40;80.37;99499.25;5029502;28;1196;-60
2022/10/03 10:16:58;;;;;;;;;;;;;;;13.13;84.33;99491.03;5014236;28;799;-60
2022/10/03 10:19:36;;;;;;;;;;;;;;;12.96;86.24;99484.63;5014124;28;1885;-60
2022/10/03 10:22:21;;;;;;;;;;;;;;;12.87;88.11;99478.88;5014107;28;846;-60
2022/10/03 10:25:00;;;;;;;;;;;;;;;12.85;89.76;99484.06;5014043;28;846;-60
2022/10/03 10:27:36;;;;;;;;;;;;;;;12.83;91.93;99486.50;5013914;28;830;-60
2022/10/03 10:30:22;;;;;;;;;;;;;;;12.87;93.61;99474.09;5013924;28;822;-61
2022/10/03 10:32:58;;;;;;;;;;;;;;;12.91;95.52;99484.34;5013956;28;1208;-62
2022/10/03 10:35:34;;;;;;;;;;;;;;;12.83;97.52;99469.84;5014236;28;791;-63
2022/10/03 10:38:16;;;;;;;;;;;;;;;12.93;98.87;99479.97;5014071;28;870;-65
2022/10/03 10:41:03;;;;;;;;;;;;;;;13.17;99.95;99479.88;5012380;28;1378;-65
2022/10/03 10:43:42;;;;;;;;;;;;;;;13.24;100.00;99477.72;5013822;28;874;-65
2022/10/03 10:46:27;;;;;;;;;;;;;;;13.55;100.00;99480.28;5013638;28;831;-65
2022/10/03 10:48:57;;;;;;;;;;;;;;;13.89;100.00;99473.56;5013619;28;854;-65
2022/10/03 10:52:00;;;;;;;;;;;;;;;13.98;100.00;99482.06;5013489;28;822;-65
2022/10/03 10:54:47;;;;;;;;;;;;;;;14.12;100.00;99488.50;4953159;29;1214;-66
2022/10/03 10:57:23;;;;;;;;;;;;;;;14.20;100.00;99473.97;5010314;28;947;-66
2022/10/03 11:00:04;;;;;;;;;;;;;;;14.14;100.00;99477.72;5013447;28;1874;-66
2022/10/03 11:02:40;;;;;;;;;;;;;;;13.98;100.00;99481.28;5013396;28;819;-66
2022/10/03 11:05:22;;;;;;;;;;;;;;;14.02;100.00;99476.44;5028476;28;1350;-66
2022/10/03 11:07:55;;;;;;;;;;;;;;;14.12;100.00;99477.38;5013275;28;835;-67
2022/10/03 11:10:30;;;;;;;;;;;;;;;14.23;100.00;99470.34;5013199;28;782;-66
2022/10/03 11:13:03;;;;;;;;;;;;;;;14.21;100.00;99466.41;5013250;28;806;-66
2022/10/03 11:15:57;;;;;;;;;;;;;;;14.17;100.00;99463.75;5013120;28;912;-66
2022/10/03 11:18:50;;;;;;;;;;;;;;;14.20;100.00;99468.41;4989357;28;1945;-66
2022/10/03 11:21:26;;;;;;;;;;;;;;;14.33;100.00;99468.50;5013484;28;811;-66
2022/10/03 11:24:11;;;;;;;;;;;;;;;14.48;100.00;99472.47;5012344;28;935;-65
2022/10/03 11:26:47;;;;;;;;;;;;;;;14.76;100.00;99466.63;5012847;28;893;-65
2022/10/03 11:29:40;;;;;;;;;;;;;;;15.11;100.00;99459.28;5012905;28;791;-65
2022/10/03 11:32:18;;;;;;;;;;;;;;;15.67;100.00;99466.34;5013165;28;1171;-64
2022/10/03 11:35:05;;;;;;;;;;;;;;;16.12;100.00;99468.91;5012846;28;858;-64
2022/10/03 11:37:35;;;;;;;;;;;;;;;16.20;99.97;99466.66;5012731;28;846;-63
2022/10/03 11:40:13;;;;;;;;;;;;;;;16.25;99.93;99456.97;5012614;28;1918;-61
2022/10/03 11:42:40;;;;;;;;;;;;;;;16.36;98.75;99448.22;5012657;28;814;-61
2022/10/03 11:45:27;;;;;;;;;;;;;;;16.36;96.98;99449.00;5012638;28;802;-61
2022/10/03 11:48:18;;;;;;;;;;;;;;;16.61;96.82;99441.78;5012424;28;1092;-61
2022/10/03 11:50:50;;;;;;;;;;;;;;;17.14;94.82;99453.81;5012522;28;807;-61
2022/10/03 11:53:32;;;;;;;;;;;;;;;17.51;90.68;99451.22;5012748;28;858;-61
2022/10/03 11:56:08;;;;;;;;;;;;;;;18.09;87.33;99449.75;5012400;28;834;-60
2022/10/03 11:58:43;;;;;;;;;;;;;;;18.93;82.91;99436.59;5012349;28;1934;-61
2022/10/03 12:01:11;;;;;;;;;;;;;;;19.18;80.89;99441.03;5012551;28;886;-61
2022/10/03 12:03:47;;;;;;;;;;;;;;;19.40;77.42;99438.03;5012563;28;807;-61
2022/10/03 12:09:33;;;;;;;;;;;;;;;18.92;75.76;99421.03;5011168;28;1147;-61
2022/10/03 12:12:09;;;;;;;;;;;;;;;18.79;76.39;99428.84;5013039;28;786;-61
2022/10/03 12:14:48;;;;;;;;;;;;;;;18.45;77.53;99445.44;5012231;28;846;-61
2022/10/03 12:17:23;;;;;;;;;;;;;;;18.00;77.78;99441.31;5012150;28;1206;-61
2022/10/03 12:20:26;;;;;;;;;;;;;;;17.51;78.52;99444.84;5012024;28;1933;-61
2022/10/03 12:23:01;;;;;;;;;;;;;;;16.87;80.65;99434.88;4951882;29;1391;-62
2022/10/03 12:25:29;;;;;;;;;;;;;;;16.61;82.40;99433.41;4951560;29;927;-61
2022/10/03 12:28:15;;;;;;;;;;;;;;;16.56;84.34;99439.56;4951749;29;855;-62
2022/10/03 12:30:44;;;;;;;;;;;;;;;16.52;86.03;99437.69;4951355;29;1027;-64
2022/10/03 12:33:27;;;;;;;;;;;;;;;16.31;86.37;99433.63;4951075;29;1538;-64
2022/10/03 12:36:08;;;;;;;;;;;;;;;16.10;87.55;99435.13;4951419;29;832;-63
2022/10/03 12:38:55;;;;;;;;;;;;;;;15.97;89.54;99437.16;4951337;29;1911;-63
2022/10/03 12:41:25;;;;;;;;;;;;;;;15.88;91.47;99443.41;4951718;29;879;-63
2022/10/03 12:44:04;;;;;;;;;;;;;;;15.85;92.08;99444.31;4951650;29;927;-63
2022/10/03 12:46:30;;;;;;;;;;;;;;;15.80;92.67;99439.28;4951381;29;875;-63
2022/10/03 12:49:13;;;;;;;;;;;;;;;15.75;92.91;99439.88;4951421;29;804;-62
2022/10/03 12:51:52;;;;;;;;;;;;;;;15.67;93.68;99447.63;4951349;29;827;-63
2022/10/03 12:54:33;;;;;;;;;;;;;;;15.64;94.31;99437.38;4951443;29;819;-63
2022/10/03 12:57:09;;;;;;;;;;;;;;;15.57;93.93;99443.16;4985612;28;914;-63
2022/10/03 12:59:37;;;;;;;;;;;;;;;15.57;94.55;99447.97;5012273;28;1940;-63
2022/10/03 13:02:22;;;;;;;;;;;;;;;15.59;95.11;99443.50;5012107;28;802;-64
2022/10/03 13:05:07;;;;;;;;;;;;;;;15.66;95.80;99440.50;5011604;28;814;-64
2022/10/03 13:07:51;;;;;;;;;;;;;;;15.77;96.24;99448.56;5011602;28;802;-63
2022/10/03 13:10:35;;;;;;;;;;;;;;;15.89;96.18;99446.97;5011547;28;818;-63
2022/10/03 13:13:18;;;;;;;;;;;;;;;16.02;95.47;99450.53;5011524;28;807;-63
2022/10/03 13:16:08;;;;;;;;;;;;;;;16.20;94.72;99449.94;5011604;28;822;-63
2022/10/03 13:18:37;;;;;;;;;;;;;;;16.38;94.07;99438.16;5003578;28;1939;-63
2022/10/03 13:21:25;;;;;;;;;;;;;;;16.52;91.82;99425.75;5011489;28;790;-62
2022/10/03 13:23:57;;;;;;;;;;;;;;;16.63;87.89;99420.56;5011299;28;835;-63
2022/10/03 13:26:23;;;;;;;;;;;;;;;16.87;85.96;99403.41;5011670;28;862;-63
2022/10/03 13:28:58;;;;;;;;;;;;;;;17.11;83.87;99406.47;5011452;28;786;-63
2022/10/03 13:31:28;;;;;;;;;;;;;;;17.73;83.18;99412.03;5026525;28;1465;-63
2022/10/03 13:33:59;;;;;;;;;;;;;;;18.60;76.23;99389.63;5011510;28;1251;-62
2022/10/03 13:36:34;;;;;;;;;;;;;;;19.69;69.42;99397.41;5011317;28;854;-62
2022/10/03 13:39:13;;;;;;;;;;;;;;;20.43;63.08;99386.50;5011285;28;1970;-63
2022/10/03 13:41:58;;;;;;;;;;;;;;;20.94;60.28;99391.06;5011608;28;779;-63
2022/10/03 13:44:27;;;;;;;;;;;;;;;21.18;56.40;99390.19;5011567;28;878;-60
2022/10/03 13:47:02;;;;;;;;;;;;;;;21.06;55.52;99391.25;5013160;28;858;-61
2022/10/03 13:49:37;;;;;;;;;;;;;;;20.73;55.27;99389.41;5014863;28;834;-60
2022/10/03 13:52:14;;;;;;;;;;;;;;;20.91;55.87;99383.63;5014852;28;854;-61
2022/10/03 13:54:44;;;;;;;;;;;;;;;20.67;53.49;99375.25;5014557;28;945;-61
2022/10/03 13:57:31;;;;;;;;;;;;;;;20.48;54.17;99379.44;5014657;28;877;-63
2022/10/03 14:00:00;;;;;;;;;;;;;;;20.68;54.32;99373.25;5014413;28;1937;-61
2022/10/03 14:02:30;;;;;;;;;;;;;;;20.82;53.45;99372.44;5014782;28;841;-61
2022/10/03 14:05:26;;;;;;;;;;;;;;;20.85;53.21;99365.88;5014521;28;851;-64
